sensor_id;sensor_type;location;lat;lon;timestamp;pressure;altitude;pressure_sealevel;temperature
58102;BMP280;52034;51.926;6.320;2023-09-19T00:00:56;100642.81;;;17.76
58102;BMP280;52034;51.926;6.320;2023-09-19T00:01:57;100639.25;;;17.77
58102;BMP280;52034;51.926;6.320;2023-09-19T00:02:58;100639.97;;;17.76
58102;BMP280;52034;51.926;6.320;2023-09-19T00:04:01;100635.72;;;17.71
58102;BMP280;52034;51.926;6.320;2023-09-19T00:05:02;100640.66;;;17.73
58102;BMP280;52034;51.926;6.320;2023-09-19T00:06:06;100653.50;;;17.83
58102;BMP280;52034;51.926;6.320;2023-09-19T00:07:10;100649.19;;;17.78
58102;BMP280;52034;51.926;6.320;2023-09-19T00:08:10;100655.59;;;17.81
58102;BMP280;52034;51.926;6.320;2023-09-19T00:09:13;100652.75;;;17.81
58102;BMP280;52034;51.926;6.320;2023-09-19T00:10:13;100654.19;;;17.78
58102;BMP280;52034;51.926;6.320;2023-09-19T00:11:15;100645.66;;;17.76
58102;BMP280;52034;51.926;6.320;2023-09-19T00:12:15;100645.66;;;17.76
58102;BMP280;52034;51.926;6.320;2023-09-19T00:13:16;100645.66;;;17.80
58102;BMP280;52034;51.926;6.320;2023-09-19T00:14:16;100650.59;;;17.74
58102;BMP280;52034;51.926;6.320;2023-09-19T00:15:17;100644.22;;;17.71
58102;BMP280;52034;51.926;6.320;2023-09-19T00:16:17;100647.72;;;17.68
58102;BMP280;52034;51.926;6.320;2023-09-19T00:17:19;100650.59;;;17.70
58102;BMP280;52034;51.926;6.320;2023-09-19T00:18:20;100643.47;;;17.61
58102;BMP280;52034;51.926;6.320;2023-09-19T00:19:21;100653.41;;;17.62
58102;BMP280;52034;51.926;6.320;2023-09-19T00:20:22;100654.06;;;17.54
58102;BMP280;52034;51.926;6.320;2023-09-19T00:21:25;100662.66;;;17.62
58102;BMP280;52034;51.926;6.320;2023-09-19T00:22:26;100651.25;;;17.56
58102;BMP280;52034;51.926;6.320;2023-09-19T00:23:27;100660.47;;;17.63
58102;BMP280;52034;51.926;6.320;2023-09-19T00:24:28;100649.84;;;17.59
58102;BMP280;52034;51.926;6.320;2023-09-19T00:25:28;100646.94;;;17.49
58102;BMP280;52034;51.926;6.320;2023-09-19T00:26:28;100655.50;;;17.55
58102;BMP280;52034;51.926;6.320;2023-09-19T00:27:30;100661.19;;;17.61
58102;BMP280;52034;51.926;6.320;2023-09-19T00:28:31;100656.97;;;17.66
58102;BMP280;52034;51.926;6.320;2023-09-19T00:29:31;100662.66;;;17.66
58102;BMP280;52034;51.926;6.320;2023-09-19T00:30:33;100660.47;;;17.59
58102;BMP280;52034;51.926;6.320;2023-09-19T00:31:34;100666.88;;;17.63
58102;BMP280;52034;51.926;6.320;2023-09-19T00:32:37;100660.50;;;17.65
58102;BMP280;52034;51.926;6.320;2023-09-19T00:33:37;100657.69;;;17.67
58102;BMP280;52034;51.926;6.320;2023-09-19T00:34:38;100661.91;;;17.64
58102;BMP280;52034;51.926;6.320;2023-09-19T00:35:38;100667.59;;;17.64
58102;BMP280;52034;51.926;6.320;2023-09-19T00:36:38;100661.19;;;17.55
58102;BMP280;52034;51.926;6.320;2023-09-19T00:37:39;100671.84;;;17.63
58102;BMP280;52034;51.926;6.320;2023-09-19T00:38:39;100666.13;;;17.55
58102;BMP280;52034;51.926;6.320;2023-09-19T00:39:40;100662.59;;;17.52
58102;BMP280;52034;51.926;6.320;2023-09-19T00:40:44;100666.13;;;17.51
58102;BMP280;52034;51.926;6.320;2023-09-19T00:41:44;100672.53;;;17.55
58102;BMP280;52034;51.926;6.320;2023-09-19T00:42:46;100678.19;;;17.53
58102;BMP280;52034;51.926;6.320;2023-09-19T00:43:46;100666.13;;;17.47
58102;BMP280;52034;51.926;6.320;2023-09-19T00:44:47;100679.56;;;17.46
58102;BMP280;52034;51.926;6.320;2023-09-19T00:45:52;100681.03;;;17.53
58102;BMP280;52034;51.926;6.320;2023-09-19T00:46:53;100674.59;;;17.49
58102;BMP280;52034;51.926;6.320;2023-09-19T00:47:54;100678.19;;;17.51
58102;BMP280;52034;51.926;6.320;2023-09-19T00:48:55;100671.75;;;17.43
58102;BMP280;52034;51.926;6.320;2023-09-19T00:49:58;100676.00;;;17.46
58102;BMP280;52034;51.926;6.320;2023-09-19T00:51:02;100683.84;;;17.51
58102;BMP280;52034;51.926;6.320;2023-09-19T00:52:04;100681.03;;;17.53
58102;BMP280;52034;51.926;6.320;2023-09-19T00:53:05;100683.16;;;17.47
58102;BMP280;52034;51.926;6.320;2023-09-19T00:54:09;100673.88;;;17.44
58102;BMP280;52034;51.926;6.320;2023-09-19T00:55:11;100676.72;;;17.42
58102;BMP280;52034;51.926;6.320;2023-09-19T00:56:15;100685.94;;;17.45
58102;BMP280;52034;51.926;6.320;2023-09-19T00:57:18;100683.81;;;17.43
58102;BMP280;52034;51.926;6.320;2023-09-19T00:58:20;100680.28;;;17.45
58102;BMP280;52034;51.926;6.320;2023-09-19T00:59:20;100683.16;;;17.51
58102;BMP280;52034;51.926;6.320;2023-09-19T01:00:22;100676.75;;;17.46
58102;BMP280;52034;51.926;6.320;2023-09-19T01:01:24;100683.84;;;17.51
58102;BMP280;52034;51.926;6.320;2023-09-19T01:02:25;100688.81;;;17.53
58102;BMP280;52034;51.926;6.320;2023-09-19T01:03:30;100681.69;;;17.46
58102;BMP280;52034;51.926;6.320;2023-09-19T01:04:31;100687.38;;;17.46
58102;BMP280;52034;51.926;6.320;2023-09-19T01:05:31;100689.47;;;17.43
58102;BMP280;52034;51.926;6.320;2023-09-19T01:06:33;100695.16;;;17.41
58102;BMP280;52034;51.926;6.320;2023-09-19T01:07:33;100691.56;;;17.39
58102;BMP280;52034;51.926;6.320;2023-09-19T01:08:34;100693.03;;;17.38
58102;BMP280;52034;51.926;6.320;2023-09-19T01:09:35;100700.06;;;17.33
58102;BMP280;52034;51.926;6.320;2023-09-19T01:10:36;100697.97;;;17.35
58102;BMP280;52034;51.926;6.320;2023-09-19T01:11:42;100697.22;;;17.33
58102;BMP280;52034;51.926;6.320;2023-09-19T01:15:13;100706.47;;;17.35
58102;BMP280;52034;51.926;6.320;2023-09-19T01:15:55;100706.47;;;17.33
58102;BMP280;52034;51.926;6.320;2023-09-19T01:17:21;100698.59;;;17.26
58102;BMP280;52034;51.926;6.320;2023-09-19T01:18:43;100705.00;;;17.26
58102;BMP280;52034;51.926;6.320;2023-09-19T01:20:10;100700.00;;;17.23
58102;BMP280;52034;51.926;6.320;2023-09-19T01:21:21;100702.81;;;17.21
58102;BMP280;52034;51.926;6.320;2023-09-19T01:22:38;100704.25;;;17.22
58102;BMP280;52034;51.926;6.320;2023-09-19T01:25:41;100701.41;;;17.24
58102;BMP280;52034;51.926;6.320;2023-09-19T01:30:33;100701.41;;;17.18
58102;BMP280;52034;51.926;6.320;2023-09-19T01:31:37;100703.47;;;17.15
58102;BMP280;52034;51.926;6.320;2023-09-19T01:32:38;100697.84;;;17.19
58102;BMP280;52034;51.926;6.320;2023-09-19T01:34:57;100708.44;;;17.13
58102;BMP280;52034;51.926;6.320;2023-09-19T01:36:05;100710.59;;;17.16
58102;BMP280;52034;51.926;6.320;2023-09-19T01:37:06;100709.88;;;17.16
58102;BMP280;52034;51.926;6.320;2023-09-19T01:38:07;100714.09;;;17.09
58102;BMP280;52034;51.926;6.320;2023-09-19T01:39:11;100711.91;;;17.05
58102;BMP280;52034;51.926;6.320;2023-09-19T01:40:17;100709.75;;;16.98
58102;BMP280;52034;51.926;6.320;2023-09-19T01:41:26;100715.47;;;17.04
58102;BMP280;52034;51.926;6.320;2023-09-19T01:43:56;100713.19;;;16.88
58102;BMP280;52034;51.926;6.320;2023-09-19T01:46:27;100712.44;;;16.84
58102;BMP280;52034;51.926;6.320;2023-09-19T01:47:36;100712.44;;;16.84
58102;BMP280;52034;51.926;6.320;2023-09-19T01:48:46;100713.16;;;16.86
58102;BMP280;52034;51.926;6.320;2023-09-19T01:49:59;100713.88;;;16.85
58102;BMP280;52034;51.926;6.320;2023-09-19T01:51:06;100716.69;;;16.83
58102;BMP280;52034;51.926;6.320;2023-09-19T01:52:12;100725.88;;;16.81
58102;BMP280;52034;51.926;6.320;2023-09-19T01:53:45;100725.16;;;16.81
58102;BMP280;52034;51.926;6.320;2023-09-19T01:54:52;100720.09;;;16.69
58102;BMP280;52034;51.926;6.320;2023-09-19T01:55:53;100720.13;;;16.71
58102;BMP280;52034;51.926;6.320;2023-09-19T01:56:59;100715.81;;;16.66
58102;BMP280;52034;51.926;6.320;2023-09-19T01:58:07;100725.00;;;16.65
58102;BMP280;52034;51.926;6.320;2023-09-19T01:59:22;100726.53;;;16.72
58102;BMP280;52034;51.926;6.320;2023-09-19T02:00:25;100712.28;;;16.66
58102;BMP280;52034;51.926;6.320;2023-09-19T02:01:27;100722.25;;;16.75
58102;BMP280;52034;51.926;6.320;2023-09-19T02:02:29;100710.19;;;16.68
58102;BMP280;52034;51.926;6.320;2023-09-19T02:03:31;100723.72;;;16.74
58102;BMP280;52034;51.926;6.320;2023-09-19T02:04:33;100713.72;;;16.67
58102;BMP280;52034;51.926;6.320;2023-09-19T02:05:35;100722.97;;;16.71
58102;BMP280;52034;51.926;6.320;2023-09-19T02:06:35;100721.53;;;16.68
58102;BMP280;52034;51.926;6.320;2023-09-19T02:07:39;100712.28;;;16.68
58102;BMP280;52034;51.926;6.320;2023-09-19T02:08:40;100718.69;;;16.68
58102;BMP280;52034;51.926;6.320;2023-09-19T02:09:40;100713.69;;;16.63
58102;BMP280;52034;51.926;6.320;2023-09-19T02:10:42;100724.31;;;16.64
58102;BMP280;52034;51.926;6.320;2023-09-19T02:11:46;100727.13;;;16.62
58102;BMP280;52034;51.926;6.320;2023-09-19T02:12:46;100720.78;;;16.66
58102;BMP280;52034;51.926;6.320;2023-09-19T02:13:47;100718.56;;;16.56
58102;BMP280;52034;51.926;6.320;2023-09-19T02:14:48;100723.56;;;16.62
58102;BMP280;52034;51.926;6.320;2023-09-19T02:15:48;100724.97;;;16.61
58102;BMP280;52034;51.926;6.320;2023-09-19T02:16:48;100721.38;;;16.54
58102;BMP280;52034;51.926;6.320;2023-09-19T02:17:50;100734.88;;;16.58
58102;BMP280;52034;51.926;6.320;2023-09-19T02:18:50;100724.19;;;16.52
58102;BMP280;52034;51.926;6.320;2023-09-19T02:19:54;100733.44;;;16.57
58102;BMP280;52034;51.926;6.320;2023-09-19T02:20:56;100735.56;;;16.56
58102;BMP280;52034;51.926;6.320;2023-09-19T02:21:58;100724.22;;;16.56
58102;BMP280;52034;51.926;6.320;2023-09-19T02:22:59;100734.19;;;16.57
58102;BMP280;52034;51.926;6.320;2023-09-19T02:23:59;100734.09;;;16.51
58102;BMP280;52034;51.926;6.320;2023-09-19T02:24:59;100734.84;;;16.56
58102;BMP280;52034;51.926;6.320;2023-09-19T02:26:00;100727.06;;;16.56
58102;BMP280;52034;51.926;6.320;2023-09-19T02:27:01;100720.69;;;16.54
58102;BMP280;52034;51.926;6.320;2023-09-19T02:28:05;100734.84;;;16.56
58102;BMP280;52034;51.926;6.320;2023-09-19T02:29:05;100734.13;;;16.55
58102;BMP280;52034;51.926;6.320;2023-09-19T02:30:06;100735.63;;;16.60
58102;BMP280;52034;51.926;6.320;2023-09-19T02:31:06;100741.31;;;16.62
58102;BMP280;52034;51.926;6.320;2023-09-19T02:32:07;100737.00;;;16.57
58102;BMP280;52034;51.926;6.320;2023-09-19T02:33:09;100737.72;;;16.58
58102;BMP280;52034;51.926;6.320;2023-09-19T02:34:09;100741.97;;;16.61
58102;BMP280;52034;51.926;6.320;2023-09-19T02:35:10;100743.38;;;16.56
58102;BMP280;52034;51.926;6.320;2023-09-19T02:36:11;100742.00;;;16.59
58102;BMP280;52034;51.926;6.320;2023-09-19T02:37:11;100747.56;;;16.55
58102;BMP280;52034;51.926;6.320;2023-09-19T02:38:13;100739.03;;;16.51
58102;BMP280;52034;51.926;6.320;2023-09-19T02:39:14;100733.34;;;16.47
58102;BMP280;52034;51.926;6.320;2023-09-19T02:40:15;100738.34;;;16.48
58102;BMP280;52034;51.926;6.320;2023-09-19T02:41:25;100726.84;;;16.36
58102;BMP280;52034;51.926;6.320;2023-09-19T02:42:26;100730.38;;;16.35
58102;BMP280;52034;51.926;6.320;2023-09-19T02:43:27;100724.66;;;16.31
58102;BMP280;52034;51.926;6.320;2023-09-19T02:44:27;100730.28;;;16.29
58102;BMP280;52034;51.926;6.320;2023-09-19T02:45:28;100718.22;;;16.26
58102;BMP280;52034;51.926;6.320;2023-09-19T02:46:30;100736.72;;;16.31
58102;BMP280;52034;51.926;6.320;2023-09-19T02:47:31;100728.16;;;16.27
58102;BMP280;52034;51.926;6.320;2023-09-19T02:48:31;100723.94;;;16.28
58102;BMP280;52034;51.926;6.320;2023-09-19T02:49:33;100732.38;;;16.22
58102;BMP280;52034;51.926;6.320;2023-09-19T02:50:33;100735.91;;;16.25
58102;BMP280;52034;51.926;6.320;2023-09-19T02:51:34;100735.16;;;16.20
58102;BMP280;52034;51.926;6.320;2023-09-19T02:52:34;100731.66;;;16.24
58102;BMP280;52034;51.926;6.320;2023-09-19T02:53:34;100738.72;;;16.21
58102;BMP280;52034;51.926;6.320;2023-09-19T02:54:35;100735.94;;;16.23
58102;BMP280;52034;51.926;6.320;2023-09-19T02:55:36;100739.34;;;16.15
58102;BMP280;52034;51.926;6.320;2023-09-19T02:56:39;100732.19;;;16.08
58102;BMP280;52034;51.926;6.320;2023-09-19T02:57:39;100745.03;;;16.15
58102;BMP280;52034;51.926;6.320;2023-09-19T02:58:43;100742.19;;;16.15
58102;BMP280;52034;51.926;6.320;2023-09-19T02:59:43;100744.94;;;16.09
58102;BMP280;52034;51.926;6.320;2023-09-19T03:00:44;100742.09;;;16.07
58102;BMP280;52034;51.926;6.320;2023-09-19T03:01:47;100747.72;;;16.05
58102;BMP280;52034;51.926;6.320;2023-09-19T03:02:53;100747.09;;;16.11
58102;BMP280;52034;51.926;6.320;2023-09-19T03:03:54;100742.81;;;16.08
58102;BMP280;52034;51.926;6.320;2023-09-19T03:04:55;100746.31;;;16.06
58102;BMP280;52034;51.926;6.320;2023-09-19T03:05:56;100749.91;;;16.11
58102;BMP280;52034;51.926;6.320;2023-09-19T03:06:58;100746.28;;;16.02
58102;BMP280;52034;51.926;6.320;2023-09-19T03:08:01;100753.34;;;16.03
58102;BMP280;52034;51.926;6.320;2023-09-19T03:09:01;100747.72;;;16.05
58102;BMP280;52034;51.926;6.320;2023-09-19T03:10:05;100748.44;;;16.06
58102;BMP280;52034;51.926;6.320;2023-09-19T03:11:06;100743.44;;;16.04
58102;BMP280;52034;51.926;6.320;2023-09-19T03:12:08;100742.63;;;15.94
58102;BMP280;52034;51.926;6.320;2023-09-19T03:13:09;100739.81;;;15.98
58102;BMP280;52034;51.926;6.320;2023-09-19T03:14:10;100745.38;;;15.90
58102;BMP280;52034;51.926;6.320;2023-09-19T03:15:11;100741.16;;;15.91
58102;BMP280;52034;51.926;6.320;2023-09-19T03:16:11;100748.28;;;15.94
58102;BMP280;52034;51.926;6.320;2023-09-19T03:17:15;100749.03;;;15.98
58102;BMP280;52034;51.926;6.320;2023-09-19T03:18:16;100751.09;;;15.92
58102;BMP280;52034;51.926;6.320;2023-09-19T03:19:16;100742.53;;;15.90
58102;BMP280;52034;51.926;6.320;2023-09-19T03:20:17;100753.19;;;15.91
58102;BMP280;52034;51.926;6.320;2023-09-19T03:21:18;100742.47;;;15.84
58102;BMP280;52034;51.926;6.320;2023-09-19T03:22:19;100748.25;;;15.92
58102;BMP280;52034;51.926;6.320;2023-09-19T03:23:21;100749.53;;;15.83
58102;BMP280;52034;51.926;6.320;2023-09-19T03:24:21;100753.13;;;15.85
58102;BMP280;52034;51.926;6.320;2023-09-19T03:25:21;100744.47;;;15.75
58102;BMP280;52034;51.926;6.320;2023-09-19T03:26:24;100753.81;;;15.84
58102;BMP280;52034;51.926;6.320;2023-09-19T03:27:26;100753.81;;;15.84
58102;BMP280;52034;51.926;6.320;2023-09-19T03:28:27;100755.91;;;15.83
58102;BMP280;52034;51.926;6.320;2023-09-19T03:29:31;100759.41;;;15.82
58102;BMP280;52034;51.926;6.320;2023-09-19T03:30:32;100756.66;;;15.86
58102;BMP280;52034;51.926;6.320;2023-09-19T03:31:34;100750.25;;;15.83
58102;BMP280;52034;51.926;6.320;2023-09-19T03:32:37;100754.47;;;15.80
58102;BMP280;52034;51.926;6.320;2023-09-19T03:33:43;100757.19;;;15.72
58102;BMP280;52034;51.926;6.320;2023-09-19T03:34:43;100756.44;;;15.72
58102;BMP280;52034;51.926;6.320;2023-09-19T03:35:52;100755.09;;;15.75
58102;BMP280;52034;51.926;6.320;2023-09-19T03:36:52;100752.22;;;15.71
58102;BMP280;52034;51.926;6.320;2023-09-19T03:37:52;100754.41;;;15.76
58102;BMP280;52034;51.926;6.320;2023-09-19T03:38:53;100756.56;;;15.80
58102;BMP280;52034;51.926;6.320;2023-09-19T03:39:53;100755.06;;;15.71
58102;BMP280;52034;51.926;6.320;2023-09-19T03:40:53;100754.97;;;15.65
58102;BMP280;52034;51.926;6.320;2023-09-19T03:41:54;100757.19;;;15.72
58102;BMP280;52034;51.926;6.320;2023-09-19T03:42:54;100756.34;;;15.66
58102;BMP280;52034;51.926;6.320;2023-09-19T03:43:56;100742.84;;;15.62
58102;BMP280;52034;51.926;6.320;2023-09-19T03:44:56;100756.41;;;15.68
58102;BMP280;52034;51.926;6.320;2023-09-19T03:46:01;100742.94;;;15.66
58102;BMP280;52034;51.926;6.320;2023-09-19T03:47:05;100732.16;;;15.57
58102;BMP280;52034;51.926;6.320;2023-09-19T03:48:10;100748.69;;;15.72
58102;BMP280;52034;51.926;6.320;2023-09-19T03:49:10;100742.94;;;15.66
58102;BMP280;52034;51.926;6.320;2023-09-19T03:50:10;100742.97;;;15.68
58102;BMP280;52034;51.926;6.320;2023-09-19T03:51:11;100742.22;;;15.66
58102;BMP280;52034;51.926;6.320;2023-09-19T03:52:12;100735.19;;;15.69
58102;BMP280;52034;51.926;6.320;2023-09-19T03:53:12;100746.47;;;15.67
58102;BMP280;52034;51.926;6.320;2023-09-19T03:54:13;100742.31;;;15.74
58102;BMP280;52034;51.926;6.320;2023-09-19T03:55:14;100750.13;;;15.73
58102;BMP280;52034;51.926;6.320;2023-09-19T03:56:15;100747.31;;;15.77
58102;BMP280;52034;51.926;6.320;2023-09-19T03:57:15;100747.28;;;15.73
58102;BMP280;52034;51.926;6.320;2023-09-19T03:58:20;100747.91;;;15.68
58102;BMP280;52034;51.926;6.320;2023-09-19T03:59:20;100757.19;;;15.72
58102;BMP280;52034;51.926;6.320;2023-09-19T04:00:22;100742.94;;;15.66
58102;BMP280;52034;51.926;6.320;2023-09-19T04:01:24;100743.00;;;15.70
58102;BMP280;52034;51.926;6.320;2023-09-19T04:02:25;100743.69;;;15.69
58102;BMP280;52034;51.926;6.320;2023-09-19T04:03:25;100750.78;;;15.72
58102;BMP280;52034;51.926;6.320;2023-09-19T04:04:34;100750.66;;;15.64
58102;BMP280;52034;51.926;6.320;2023-09-19T04:05:34;100754.31;;;15.70
58102;BMP280;52034;51.926;6.320;2023-09-19T04:06:35;100746.56;;;15.71
58102;BMP280;52034;51.926;6.320;2023-09-19T04:07:36;100755.81;;;15.75
58102;BMP280;52034;51.926;6.320;2023-09-19T04:08:36;100746.56;;;15.73
58102;BMP280;52034;51.926;6.320;2023-09-19T04:09:36;100753.63;;;15.72
58102;BMP280;52034;51.926;6.320;2023-09-19T04:10:36;100750.06;;;15.71
58102;BMP280;52034;51.926;6.320;2023-09-19T04:11:37;100745.78;;;15.68
58102;BMP280;52034;51.926;6.320;2023-09-19T04:12:37;100746.59;;;15.75
58102;BMP280;52034;51.926;6.320;2023-09-19T04:13:41;100744.47;;;15.75
58102;BMP280;52034;51.926;6.320;2023-09-19T04:14:41;100740.09;;;15.66
58102;BMP280;52034;51.926;6.320;2023-09-19T04:15:41;100749.41;;;15.71
58102;BMP280;52034;51.926;6.320;2023-09-19T04:16:42;100738.06;;;15.71
58102;BMP280;52034;51.926;6.320;2023-09-19T04:17:42;100742.28;;;15.72
58102;BMP280;52034;51.926;6.320;2023-09-19T04:18:42;100738.75;;;15.71
58102;BMP280;52034;51.926;6.320;2023-09-19T04:19:43;100738.75;;;15.71
58102;BMP280;52034;51.926;6.320;2023-09-19T04:20:49;100747.22;;;15.71
58102;BMP280;52034;51.926;6.320;2023-09-19T04:21:49;100747.19;;;15.67
58102;BMP280;52034;51.926;6.320;2023-09-19T04:22:50;100736.53;;;15.66
58102;BMP280;52034;51.926;6.320;2023-09-19T04:23:51;100744.41;;;15.71
58102;BMP280;52034;51.926;6.320;2023-09-19T04:24:51;100735.91;;;15.71
58102;BMP280;52034;51.926;6.320;2023-09-19T04:25:51;100737.25;;;15.64
58102;BMP280;52034;51.926;6.320;2023-09-19T04:26:52;100740.19;;;15.70
58102;BMP280;52034;51.926;6.320;2023-09-19T04:27:52;100743.63;;;15.67
58102;BMP280;52034;51.926;6.320;2023-09-19T04:28:53;100749.34;;;15.69
58102;BMP280;52034;51.926;6.320;2023-09-19T04:29:53;100748.56;;;15.64
58102;BMP280;52034;51.926;6.320;2023-09-19T04:30:53;100746.41;;;15.61
58102;BMP280;52034;51.926;6.320;2023-09-19T04:31:55;100754.88;;;15.61
58102;BMP280;52034;51.926;6.320;2023-09-19T04:32:57;100752.13;;;15.65
58102;BMP280;52034;51.926;6.320;2023-09-19T04:33:57;100757.09;;;15.66
58102;BMP280;52034;51.926;6.320;2023-09-19T04:34:59;100756.41;;;15.68
58102;BMP280;52034;51.926;6.320;2023-09-19T04:36:03;100760.53;;;15.59
58102;BMP280;52034;51.926;6.320;2023-09-19T04:37:07;100761.19;;;15.57
58102;BMP280;52034;51.926;6.320;2023-09-19T04:38:08;100773.97;;;15.60
58102;BMP280;52034;51.926;6.320;2023-09-19T04:39:09;100767.53;;;15.56
58102;BMP280;52034;51.926;6.320;2023-09-19T04:40:11;100770.41;;;15.58
58102;BMP280;52034;51.926;6.320;2023-09-19T04:41:18;100768.19;;;15.52
58102;BMP280;52034;51.926;6.320;2023-09-19T04:42:18;100788.84;;;15.61
58102;BMP280;52034;51.926;6.320;2023-09-19T04:43:19;100790.91;;;15.58
58102;BMP280;52034;51.926;6.320;2023-09-19T04:44:19;100798.03;;;15.61
58102;BMP280;52034;51.926;6.320;2023-09-19T04:45:19;100788.75;;;15.57
58102;BMP280;52034;51.926;6.320;2023-09-19T04:46:20;100795.22;;;15.59
58102;BMP280;52034;51.926;6.320;2023-09-19T04:47:20;100800.91;;;15.63
58102;BMP280;52034;51.926;6.320;2023-09-19T04:48:22;100798.66;;;15.56
58102;BMP280;52034;51.926;6.320;2023-09-19T04:49:26;100806.53;;;15.59
58102;BMP280;52034;51.926;6.320;2023-09-19T04:50:26;100801.56;;;15.60
58102;BMP280;52034;51.926;6.320;2023-09-19T04:51:28;100802.91;;;15.55
58102;BMP280;52034;51.926;6.320;2023-09-19T04:52:33;100813.47;;;15.52
58102;BMP280;52034;51.926;6.320;2023-09-19T04:53:33;100805.81;;;15.59
58102;BMP280;52034;51.926;6.320;2023-09-19T04:54:33;100807.78;;;15.52
58102;BMP280;52034;51.926;6.320;2023-09-19T04:55:34;100815.59;;;15.52
58102;BMP280;52034;51.926;6.320;2023-09-19T04:56:34;100809.94;;;15.54
58102;BMP280;52034;51.926;6.320;2023-09-19T04:57:34;100809.97;;;15.56
58102;BMP280;52034;51.926;6.320;2023-09-19T04:58:36;100814.13;;;15.51
58102;BMP280;52034;51.926;6.320;2023-09-19T04:59:36;100806.41;;;15.55
58102;BMP280;52034;51.926;6.320;2023-09-19T05:00:37;100812.69;;;15.50
58102;BMP280;52034;51.926;6.320;2023-09-19T05:01:38;100817.69;;;15.51
58102;BMP280;52034;51.926;6.320;2023-09-19T05:02:38;100817.63;;;15.49
58102;BMP280;52034;51.926;6.320;2023-09-19T05:03:39;100817.69;;;15.51
58102;BMP280;52034;51.926;6.320;2023-09-19T05:04:40;100823.28;;;15.49
58102;BMP280;52034;51.926;6.320;2023-09-19T05:05:40;100814.75;;;15.43
58102;BMP280;52034;51.926;6.320;2023-09-19T05:06:42;100824.06;;;15.52
58102;BMP280;52034;51.926;6.320;2023-09-19T05:07:43;100817.56;;;15.45
58102;BMP280;52034;51.926;6.320;2023-09-19T05:08:44;100823.97;;;15.46
58102;BMP280;52034;51.926;6.320;2023-09-19T05:09:44;100822.63;;;15.51
58102;BMP280;52034;51.926;6.320;2023-09-19T05:10:45;100825.50;;;15.53
58102;BMP280;52034;51.926;6.320;2023-09-19T05:11:45;100839.00;;;15.56
58102;BMP280;52034;51.926;6.320;2023-09-19T05:12:46;100833.25;;;15.50
58102;BMP280;52034;51.926;6.320;2023-09-19T05:13:48;100833.94;;;15.51
58102;BMP280;52034;51.926;6.320;2023-09-19T05:14:53;100829.59;;;15.44
58102;BMP280;52034;51.926;6.320;2023-09-19T05:15:53;100836.06;;;15.50
58102;BMP280;52034;51.926;6.320;2023-09-19T05:16:53;100835.34;;;15.50
58102;BMP280;52034;51.926;6.320;2023-09-19T05:17:53;100832.59;;;15.54
58102;BMP280;52034;51.926;6.320;2023-09-19T05:18:55;100836.78;;;15.51
58102;BMP280;52034;51.926;6.320;2023-09-19T05:19:57;100833.81;;;15.43
58102;BMP280;52034;51.926;6.320;2023-09-19T05:20:58;100839.53;;;15.47
58102;BMP280;52034;51.926;6.320;2023-09-19T05:21:58;100823.81;;;15.36
58102;BMP280;52034;51.926;6.320;2023-09-19T05:23:02;100825.34;;;15.43
58102;BMP280;52034;51.926;6.320;2023-09-19T05:24:03;100825.38;;;15.45
58102;BMP280;52034;51.926;6.320;2023-09-19T05:25:03;100816.22;;;15.46
58102;BMP280;52034;51.926;6.320;2023-09-19T05:26:04;100816.97;;;15.51
58102;BMP280;52034;51.926;6.320;2023-09-19T05:27:05;100823.97;;;15.46
58102;BMP280;52034;51.926;6.320;2023-09-19T05:28:09;100822.63;;;15.51
58102;BMP280;52034;51.926;6.320;2023-09-19T05:29:11;100823.28;;;15.47
58102;BMP280;52034;51.926;6.320;2023-09-19T05:30:13;100827.66;;;15.54
58102;BMP280;52034;51.926;6.320;2023-09-19T05:31:15;100818.38;;;15.50
58102;BMP280;52034;51.926;6.320;2023-09-19T05:32:16;100814.84;;;15.51
58102;BMP280;52034;51.926;6.320;2023-09-19T05:33:17;100822.00;;;15.54
58102;BMP280;52034;51.926;6.320;2023-09-19T05:34:18;100824.13;;;15.56
58102;BMP280;52034;51.926;6.320;2023-09-19T05:35:19;100811.41;;;15.55
58102;BMP280;52034;51.926;6.320;2023-09-19T05:36:21;100818.41;;;15.52
58102;BMP280;52034;51.926;6.320;2023-09-19T05:37:22;100820.69;;;15.61
58102;BMP280;52034;51.926;6.320;2023-09-19T05:38:23;100817.28;;;15.69
58102;BMP280;52034;51.926;6.320;2023-09-19T05:39:24;100814.38;;;15.67
58102;BMP280;52034;51.926;6.320;2023-09-19T05:40:25;100812.94;;;15.64
58102;BMP280;52034;51.926;6.320;2023-09-19T05:41:26;100806.53;;;15.59
58102;BMP280;52034;51.926;6.320;2023-09-19T05:42:26;100811.66;;;15.73
58102;BMP280;52034;51.926;6.320;2023-09-19T05:43:26;100813.78;;;15.72
58102;BMP280;52034;51.926;6.320;2023-09-19T05:44:26;100812.38;;;15.73
58102;BMP280;52034;51.926;6.320;2023-09-19T05:45:27;100814.53;;;15.75
58102;BMP280;52034;51.926;6.320;2023-09-19T05:46:27;100823.13;;;15.83
58102;BMP280;52034;51.926;6.320;2023-09-19T05:47:29;100818.84;;;15.80
58102;BMP280;52034;51.926;6.320;2023-09-19T05:48:30;100829.53;;;15.83
58102;BMP280;52034;51.926;6.320;2023-09-19T05:49:30;100823.03;;;15.75
58102;BMP280;52034;51.926;6.320;2023-09-19T05:50:30;100825.91;;;15.79
58102;BMP280;52034;51.926;6.320;2023-09-19T05:51:32;100823.13;;;15.83
58102;BMP280;52034;51.926;6.320;2023-09-19T05:52:32;100835.84;;;15.82
58102;BMP280;52034;51.926;6.320;2023-09-19T05:53:33;100839.41;;;15.82
58102;BMP280;52034;51.926;6.320;2023-09-19T05:54:33;100837.91;;;15.77
58102;BMP280;52034;51.926;6.320;2023-09-19T05:55:37;100833.69;;;15.78
58102;BMP280;52034;51.926;6.320;2023-09-19T05:56:38;100847.94;;;15.84
58102;BMP280;52034;51.926;6.320;2023-09-19T05:57:38;100840.00;;;15.77
58102;BMP280;52034;51.926;6.320;2023-09-19T05:58:39;100836.56;;;15.80
58102;BMP280;52034;51.926;6.320;2023-09-19T05:59:40;100834.44;;;15.83
58102;BMP280;52034;51.926;6.320;2023-09-19T06:00:42;100834.47;;;15.81
58102;BMP280;52034;51.926;6.320;2023-09-19T06:01:44;100842.94;;;15.81
58102;BMP280;52034;51.926;6.320;2023-09-19T06:02:45;100835.13;;;15.79
58102;BMP280;52034;51.926;6.320;2023-09-19T06:03:45;100840.06;;;15.79
58102;BMP280;52034;51.926;6.320;2023-09-19T06:04:45;100833.00;;;15.80